Time;durP1;ratioP1;P1;durP2;ratioP2;P2;SDS_P1;SDS_P2;PMS_P1;PMS_P2;Temp;Humidity;BMP_temperature;BMP_pressure;BME280_temperature;BME280_humidity;BME280_pressure;Samples;Min_cycle;Max_cycle;Signal;HPM_P1;HPM_P2
2023/04/25 00:00:20;;;;;;;3.92;2.13;;;;;;;;;;4980883;28;20085;-76
2023/04/25 00:02:46;;;;;;;6.13;1.73;;;;;;;;;;4981664;28;20029;-76
2023/04/25 00:05:12;;;;;;;3.05;1.92;;;;;;;;;;4981082;28;20314;-76
2023/04/25 00:07:38;;;;;;;5.20;1.98;;;;;;;;;;4981305;28;20046;-76
2023/04/25 00:10:04;;;;;;;3.17;1.98;;;;;;;;;;4981515;28;20046;-76
2023/04/25 00:12:29;;;;;;;3.60;1.83;;;;;;;;;;4981403;28;20058;-75
2023/04/25 00:14:56;;;;;;;2.75;1.85;;;;;;;;;;4981590;28;20041;-76
2023/04/25 00:17:24;;;;;;;3.88;1.85;;;;;;;;;;4981361;28;20038;-76
2023/04/25 00:19:50;;;;;;;5.43;2.25;;;;;;;;;;4981407;28;20030;-72
2023/04/25 00:22:16;;;;;;;4.15;2.00;;;;;;;;;;4981360;28;20026;-72
2023/04/25 00:24:41;;;;;;;3.65;1.88;;;;;;;;;;4983033;28;20035;-72
2023/04/25 00:27:07;;;;;;;3.67;1.90;;;;;;;;;;4984055;28;20027;-76
2023/04/25 00:29:33;;;;;;;4.30;2.30;;;;;;;;;;4984749;28;20026;-76
2023/04/25 00:31:58;;;;;;;3.28;1.95;;;;;;;;;;4984483;28;20070;-76
2023/04/25 00:34:23;;;;;;;3.38;1.95;;;;;;;;;;4985150;28;20242;-76
2023/04/25 00:36:49;;;;;;;5.25;2.03;;;;;;;;;;4984944;28;20027;-76
2023/04/25 00:39:14;;;;;;;4.68;2.05;;;;;;;;;;4985066;28;20323;-76
2023/04/25 00:41:40;;;;;;;5.93;2.22;;;;;;;;;;4984819;28;20054;-76
2023/04/25 00:44:09;;;;;;;2.90;1.80;;;;;;;;;;4984989;28;20045;-76
2023/04/25 00:46:35;;;;;;;3.80;2.20;;;;;;;;;;4984666;28;20034;-76
2023/04/25 00:49:00;;;;;;;4.50;2.10;;;;;;;;;;4984611;28;20077;-77
2023/04/25 00:51:26;;;;;;;3.90;2.08;;;;;;;;;;4984531;28;20153;-77
2023/04/25 00:53:52;;;;;;;4.57;2.25;;;;;;;;;;4983253;28;20061;-74
2023/04/25 00:56:17;;;;;;;4.75;2.30;;;;;;;;;;4984241;28;20037;-76
2023/04/25 00:58:43;;;;;;;4.45;1.80;;;;;;;;;;4984030;28;20345;-76
2023/04/25 01:01:09;;;;;;;3.13;1.90;;;;;;;;;;4983752;28;20030;-76
2023/04/25 01:03:40;;;;;;;3.30;1.85;;;;;;;;;;4984383;28;20347;-75
2023/04/25 01:06:07;;;;;;;;;;;;;;;;;;4984635;28;20266;-77
2023/04/25 01:08:33;;;;;;;6.45;2.20;;;;;;;;;;4984707;28;19910;-76
2023/04/25 01:10:59;;;;;;;4.03;2.05;;;;;;;;;;4984380;28;20023;-75
2023/04/25 01:13:24;;;;;;;2.83;1.90;;;;;;;;;;4984467;28;20023;-76
2023/04/25 01:15:49;;;;;;;3.65;1.92;;;;;;;;;;4984425;28;20296;-76
2023/04/25 01:18:16;;;;;;;2.72;1.70;;;;;;;;;;4984219;28;20069;-77
2023/04/25 01:20:41;;;;;;;3.55;1.67;;;;;;;;;;4983814;28;20358;-76
2023/04/25 01:23:07;;;;;;;2.70;1.50;;;;;;;;;;4984231;28;20407;-75
2023/04/25 01:25:33;;;;;;;2.65;1.45;;;;;;;;;;4984312;28;20030;-73
2023/04/25 01:27:59;;;;;;;2.53;1.30;;;;;;;;;;4983590;28;20375;-74
2023/04/25 01:30:26;;;;;;;2.92;1.48;;;;;;;;;;4983389;28;20334;-77
2023/04/25 01:32:54;;;;;;;1.90;1.20;;;;;;;;;;4982607;28;20030;-76
2023/04/25 01:35:20;;;;;;;1.50;1.08;;;;;;;;;;4982099;28;20191;-76
2023/04/25 01:37:45;;;;;;;3.03;1.00;;;;;;;;;;4982556;28;20129;-77
2023/04/25 01:40:12;;;;;;;1.83;1.00;;;;;;;;;;4983770;28;20022;-77
2023/04/25 01:42:40;;;;;;;1.55;0.90;;;;;;;;;;4983643;28;20035;-77
2023/04/25 01:45:07;;;;;;;2.53;1.10;;;;;;;;;;4983647;28;20026;-77
2023/04/25 01:47:34;;;;;;;1.10;0.88;;;;;;;;;;4983364;28;20039;-73
2023/04/25 01:50:00;;;;;;;1.50;0.80;;;;;;;;;;4984054;28;20027;-76
2023/04/25 01:52:26;;;;;;;2.13;0.80;;;;;;;;;;4983365;28;20113;-74
2023/04/25 01:54:52;;;;;;;1.40;0.80;;;;;;;;;;4982925;28;20026;-76
2023/04/25 01:57:17;;;;;;;2.05;0.70;;;;;;;;;;4983021;28;20034;-75
2023/04/25 01:59:43;;;;;;;0.98;0.60;;;;;;;;;;4981967;28;20037;-76
2023/04/25 02:02:09;;;;;;;1.55;0.70;;;;;;;;;;4982661;28;20218;-77
2023/04/25 02:04:34;;;;;;;1.58;0.50;;;;;;;;;;4982590;28;20035;-77
2023/04/25 02:06:59;;;;;;;0.60;0.50;;;;;;;;;;4983189;28;20031;-77
2023/04/25 02:09:25;;;;;;;0.98;0.50;;;;;;;;;;4982999;28;20184;-77
2023/04/25 02:11:50;;;;;;;1.00;0.52;;;;;;;;;;4981911;28;20034;-76
2023/04/25 02:14:16;;;;;;;1.42;0.43;;;;;;;;;;4983245;28;20035;-76
2023/04/25 02:16:43;;;;;;;0.52;0.47;;;;;;;;;;4982901;28;20026;-76
2023/04/25 02:19:09;;;;;;;0.30;0.30;;;;;;;;;;4982602;28;20157;-71
2023/04/25 02:21:35;;;;;;;0.30;0.30;;;;;;;;;;4982287;28;20027;-73
2023/04/25 02:24:01;;;;;;;2.20;0.60;;;;;;;;;;4982808;28;20066;-71
2023/04/25 02:26:26;;;;;;;1.15;0.52;;;;;;;;;;4982745;28;20034;-73
2023/04/25 02:28:52;;;;;;;2.90;0.47;;;;;;;;;;4982942;28;20031;-76
2023/04/25 02:31:17;;;;;;;0.43;0.30;;;;;;;;;;4982338;28;20117;-76
2023/04/25 02:33:43;;;;;;;0.70;0.22;;;;;;;;;;4982402;28;20026;-72
2023/04/25 02:36:08;;;;;;;0.70;0.30;;;;;;;;;;4982917;28;20019;-76
2023/04/25 02:38:34;;;;;;;0.35;0.35;;;;;;;;;;4982537;28;20234;-76
2023/04/25 02:40:59;;;;;;;1.23;0.40;;;;;;;;;;4982242;28;20101;-77
2023/04/25 02:43:25;;;;;;;0.40;0.30;;;;;;;;;;4981652;28;20033;-75
2023/04/25 02:45:50;;;;;;;0.68;0.45;;;;;;;;;;4982038;28;20093;-77
2023/04/25 02:48:15;;;;;;;0.65;0.30;;;;;;;;;;4981876;28;20271;-75
2023/04/25 02:50:41;;;;;;;0.93;0.43;;;;;;;;;;4982583;28;20027;-76
2023/04/25 02:53:06;;;;;;;0.30;0.30;;;;;;;;;;4982514;28;20314;-76
2023/04/25 02:55:32;;;;;;;0.45;0.32;;;;;;;;;;4982215;28;20041;-77
2023/04/25 02:57:57;;;;;;;0.30;0.30;;;;;;;;;;4977744;28;20045;-77
2023/04/25 03:00:23;;;;;;;0.30;0.30;;;;;;;;;;4981003;28;20204;-73
2023/04/25 03:02:48;;;;;;;0.52;0.22;;;;;;;;;;4981420;28;20311;-72
2023/04/25 03:05:14;;;;;;;0.38;0.28;;;;;;;;;;4980329;28;20293;-76
2023/04/25 03:07:39;;;;;;;0.85;0.30;;;;;;;;;;4979483;28;20052;-77
2023/04/25 03:10:06;;;;;;;1.10;0.98;;;;;;;;;;4979126;28;20474;-77
2023/04/25 03:12:32;;;;;;;0.68;0.22;;;;;;;;;;4981116;28;20275;-75
2023/04/25 03:14:57;;;;;;;0.30;0.30;;;;;;;;;;4980606;28;20034;-76
2023/04/25 03:17:23;;;;;;;0.98;0.30;;;;;;;;;;4981232;28;20034;-76
2023/04/25 03:19:48;;;;;;;0.13;0.13;;;;;;;;;;4981596;28;20090;-76
2023/04/25 03:22:13;;;;;;;0.30;0.30;;;;;;;;;;4981779;28;20026;-77
2023/04/25 03:24:39;;;;;;;0.25;0.25;;;;;;;;;;4981916;28;20027;-74
2023/04/25 03:27:05;;;;;;;0.60;0.30;;;;;;;;;;4982126;28;20074;-74
2023/04/25 03:29:30;;;;;;;0.30;0.30;;;;;;;;;;4981955;28;20026;-75
2023/04/25 03:31:56;;;;;;;1.95;0.32;;;;;;;;;;4979708;28;20030;-75
2023/04/25 03:34:23;;;;;;;0.55;0.50;;;;;;;;;;4982009;28;20098;-73
2023/04/25 03:36:49;;;;;;;0.63;0.30;;;;;;;;;;4981502;28;20099;-76
2023/04/25 03:39:15;;;;;;;0.65;0.30;;;;;;;;;;4981948;28;20221;-73
2023/04/25 03:41:40;;;;;;;0.57;0.22;;;;;;;;;;4981723;28;20085;-76
2023/04/25 03:44:06;;;;;;;0.63;0.30;;;;;;;;;;4980905;28;20031;-76
2023/04/25 03:46:31;;;;;;;1.73;0.30;;;;;;;;;;4980829;28;20363;-76
2023/04/25 03:48:56;;;;;;;0.55;0.40;;;;;;;;;;4980346;28;20058;-70
2023/04/25 03:51:22;;;;;;;4.03;0.30;;;;;;;;;;4980691;28;20034;-76
2023/04/25 03:53:47;;;;;;;0.60;0.35;;;;;;;;;;4980210;28;20123;-76
2023/04/25 03:56:13;;;;;;;0.82;0.40;;;;;;;;;;4980308;28;20037;-73
2023/04/25 03:58:38;;;;;;;0.47;0.30;;;;;;;;;;4980135;28;20030;-76
2023/04/25 04:01:07;;;;;;;1.23;0.60;;;;;;;;;;4984495;28;20022;-76
2023/04/25 04:03:34;;;;;;;1.30;0.40;;;;;;;;;;4984579;28;20038;-75
2023/04/25 04:05:59;;;;;;;1.58;0.40;;;;;;;;;;4980455;28;20031;-76
2023/04/25 04:08:25;;;;;;;0.45;0.30;;;;;;;;;;4984162;28;20061;-76
2023/04/25 04:10:50;;;;;;;0.52;0.30;;;;;;;;;;4985365;28;20039;-77
2023/04/25 04:13:15;;;;;;;3.30;0.50;;;;;;;;;;4983673;28;20066;-73
2023/04/25 04:15:41;;;;;;;0.85;0.40;;;;;;;;;;4985590;28;20027;-76
2023/04/25 04:18:06;;;;;;;0.55;0.30;;;;;;;;;;4984604;28;20042;-77
2023/04/25 04:20:32;;;;;;;1.08;0.40;;;;;;;;;;4985439;28;20073;-76
2023/04/25 04:22:57;;;;;;;1.05;0.40;;;;;;;;;;4978980;28;20019;-76
2023/04/25 04:25:24;;;;;;;0.88;0.38;;;;;;;;;;4983041;28;20030;-76
2023/04/25 04:27:51;;;;;;;0.47;0.47;;;;;;;;;;4984825;28;20038;-76
2023/04/25 04:30:17;;;;;;;1.55;0.50;;;;;;;;;;4984702;28;20034;-76
2023/04/25 04:32:43;;;;;;;1.20;0.52;;;;;;;;;;4984628;28;20015;-76
2023/04/25 04:35:08;;;;;;;1.45;0.40;;;;;;;;;;4984997;28;20106;-75
2023/04/25 04:37:34;;;;;;;0.95;0.55;;;;;;;;;;4983944;28;20027;-72
2023/04/25 04:39:59;;;;;;;1.10;0.60;;;;;;;;;;4984162;28;20034;-74
2023/04/25 04:42:25;;;;;;;0.77;0.50;;;;;;;;;;4983488;28;20035;-76
2023/04/25 04:44:51;;;;;;;1.90;0.60;;;;;;;;;;4984891;28;20093;-71
2023/04/25 04:47:17;;;;;;;0.50;0.50;;;;;;;;;;4984822;28;20030;-75
2023/04/25 04:49:42;;;;;;;1.13;0.50;;;;;;;;;;4984591;28;20105;-72
2023/04/25 04:52:08;;;;;;;0.73;0.50;;;;;;;;;;4984545;28;20030;-75
2023/04/25 04:54:35;;;;;;;2.25;0.50;;;;;;;;;;4983679;28;20054;-77
2023/04/25 04:57:00;;;;;;;0.85;0.60;;;;;;;;;;4983984;28;20039;-74
2023/04/25 04:59:25;;;;;;;1.17;0.52;;;;;;;;;;4984392;28;20027;-77
2023/04/25 05:01:52;;;;;;;1.27;0.60;;;;;;;;;;4984442;28;20329;-73
2023/04/25 05:04:17;;;;;;;1.10;0.63;;;;;;;;;;4983811;28;20054;-76
2023/04/25 05:06:44;;;;;;;1.25;0.57;;;;;;;;;;4984395;28;20125;-76
2023/04/25 05:09:09;;;;;;;1.48;0.75;;;;;;;;;;4984526;28;20062;-75
2023/04/25 05:11:35;;;;;;;0.50;0.50;;;;;;;;;;4984585;28;20039;-71
2023/04/25 05:14:00;;;;;;;1.45;0.70;;;;;;;;;;4983835;28;20038;-76
2023/04/25 05:16:25;;;;;;;1.40;0.75;;;;;;;;;;4984604;28;20406;-76
2023/04/25 05:18:51;;;;;;;2.08;0.95;;;;;;;;;;4984261;28;20038;-72
2023/04/25 05:21:16;;;;;;;1.27;0.70;;;;;;;;;;4984299;28;20106;-75
2023/04/25 05:23:41;;;;;;;0.98;0.73;;;;;;;;;;4984148;28;20027;-76
2023/04/25 05:26:13;;;;;;;0.75;0.70;;;;;;;;;;4984102;28;20034;-77
2023/04/25 05:28:42;;;;;;;1.50;0.75;;;;;;;;;;4984162;28;20086;-76
2023/04/25 05:31:09;;;;;;;1.55;0.80;;;;;;;;;;4984184;28;20499;-73
2023/04/25 05:33:35;;;;;;;1.38;0.73;;;;;;;;;;4984160;28;20078;-73
2023/04/25 05:36:00;;;;;;;1.73;0.70;;;;;;;;;;4983954;28;20068;-72
2023/04/25 05:38:26;;;;;;;1.75;0.80;;;;;;;;;;4983615;28;20106;-76
2023/04/25 05:40:51;;;;;;;1.58;0.90;;;;;;;;;;4983663;28;20042;-77
2023/04/25 05:43:16;;;;;;;2.28;0.70;;;;;;;;;;4983555;28;20030;-77
2023/04/25 05:45:42;;;;;;;3.08;0.90;;;;;;;;;;4982658;28;20030;-77
2023/04/25 05:48:07;;;;;;;0.90;0.70;;;;;;;;;;4982907;28;20030;-77
2023/04/25 05:50:33;;;;;;;1.00;0.77;;;;;;;;;;4983313;28;20041;-76
2023/04/25 05:52:58;;;;;;;1.77;0.80;;;;;;;;;;4983574;28;20087;-76
2023/04/25 05:55:23;;;;;;;2.00;1.02;;;;;;;;;;4983585;28;20377;-76
2023/04/25 05:57:49;;;;;;;1.38;0.98;;;;;;;;;;4983493;28;20042;-76
2023/04/25 06:00:15;;;;;;;1.38;0.90;;;;;;;;;;4983505;28;20377;-76
2023/04/25 06:02:41;;;;;;;1.23;0.82;;;;;;;;;;4983442;28;20023;-76
2023/04/25 06:05:07;;;;;;;1.38;0.70;;;;;;;;;;4983562;28;20093;-77
2023/04/25 06:07:33;;;;;;;1.15;0.90;;;;;;;;;;4983095;28;20326;-76
2023/04/25 06:09:59;;;;;;;1.70;0.90;;;;;;;;;;4982951;28;20037;-76
2023/04/25 06:12:25;;;;;;;1.90;0.90;;;;;;;;;;4982472;28;20314;-77
2023/04/25 06:14:50;;;;;;;1.92;0.90;;;;;;;;;;4982813;28;20031;-76
2023/04/25 06:17:15;;;;;;;1.73;0.80;;;;;;;;;;4983227;28;20083;-77
2023/04/25 06:19:41;;;;;;;1.17;0.77;;;;;;;;;;4983035;28;20042;-76
2023/04/25 06:22:07;;;;;;;1.77;0.85;;;;;;;;;;4982405;28;20033;-76
2023/04/25 06:24:32;;;;;;;0.93;0.77;;;;;;;;;;4982676;28;20048;-77
2023/04/25 06:26:58;;;;;;;1.75;0.90;;;;;;;;;;4983071;28;20078;-77
2023/04/25 06:29:23;;;;;;;1.63;0.70;;;;;;;;;;4983170;28;20046;-76
2023/04/25 06:31:49;;;;;;;0.98;0.70;;;;;;;;;;4983108;28;20023;-76
2023/04/25 06:34:15;;;;;;;1.90;0.90;;;;;;;;;;4982912;28;20034;-74
2023/04/25 06:36:41;;;;;;;0.98;0.80;;;;;;;;;;4982413;28;20066;-74
2023/04/25 06:39:07;;;;;;;2.78;0.80;;;;;;;;;;4982596;28;20360;-77
2023/04/25 06:41:32;;;;;;;0.98;0.80;;;;;;;;;;4981823;28;20105;-76
2023/04/25 06:43:58;;;;;;;1.13;0.77;;;;;;;;;;4981879;28;20041;-76
2023/04/25 06:46:23;;;;;;;1.00;0.70;;;;;;;;;;4981898;28;20312;-78
2023/04/25 06:48:49;;;;;;;1.30;0.80;;;;;;;;;;4998979;28;20033;-77
2023/04/25 06:51:14;;;;;;;1.20;0.75;;;;;;;;;;5001121;28;20018;-76
2023/04/25 06:53:40;;;;;;;3.33;0.90;;;;;;;;;;5000938;28;20037;-77
2023/04/25 06:56:05;;;;;;;0.68;0.68;;;;;;;;;;4992895;28;20035;-76
2023/04/25 06:58:31;;;;;;;1.00;0.85;;;;;;;;;;4981150;28;20311;-76
2023/04/25 07:00:57;;;;;;;3.08;0.80;;;;;;;;;;4981259;28;20137;-76
2023/04/25 07:03:22;;;;;;;2.42;0.80;;;;;;;;;;4981780;28;20337;-76
2023/04/25 07:05:47;;;;;;;1.50;0.90;;;;;;;;;;4981988;28;20105;-78
2023/04/25 07:08:13;;;;;;;3.15;0.77;;;;;;;;;;4981536;28;20037;-78
2023/04/25 07:10:38;;;;;;;3.03;1.00;;;;;;;;;;4982282;28;20038;-78
2023/04/25 07:13:03;;;;;;;1.45;0.80;;;;;;;;;;4982245;28;20037;-78
2023/04/25 07:15:29;;;;;;;3.60;0.88;;;;;;;;;;4981328;28;20035;-78
2023/04/25 07:17:55;;;;;;;4.00;1.02;;;;;;;;;;4981358;28;20131;-79
2023/04/25 07:20:20;;;;;;;2.05;1.10;;;;;;;;;;4981492;28;20049;-78
2023/04/25 07:22:46;;;;;;;1.55;0.88;;;;;;;;;;4981531;28;20080;-77
2023/04/25 07:25:11;;;;;;;0.95;0.70;;;;;;;;;;4980482;28;20089;-79
2023/04/25 07:27:37;;;;;;;1.67;0.90;;;;;;;;;;4981454;28;20094;-78
2023/04/25 07:30:03;;;;;;;2.35;0.80;;;;;;;;;;4980483;28;20089;-78
2023/04/25 07:32:29;;;;;;;2.60;0.50;;;;;;;;;;4994184;28;20010;-78
2023/04/25 07:34:55;;;;;;;0.90;0.40;;;;;;;;;;4998640;28;20062;-77
2023/04/25 07:37:20;;;;;;;1.63;0.40;;;;;;;;;;4987093;28;20069;-77
2023/04/25 07:39:46;;;;;;;0.40;0.35;;;;;;;;;;4993400;28;20031;-77
2023/04/25 07:42:12;;;;;;;0.63;0.30;;;;;;;;;;4997920;28;20038;-77
2023/04/25 07:44:38;;;;;;;0.73;0.40;;;;;;;;;;4998685;28;20226;-75
2023/04/25 07:47:07;;;;;;;0.30;0.30;;;;;;;;;;5000066;28;20034;-78
2023/04/25 07:49:36;;;;;;;0.57;0.20;;;;;;;;;;4995080;28;20333;-79
2023/04/25 07:52:03;;;;;;;0.70;0.30;;;;;;;;;;4999476;28;20053;-77
2023/04/25 07:54:29;;;;;;;0.68;0.40;;;;;;;;;;4992948;28;20027;-76
2023/04/25 07:56:55;;;;;;;1.25;0.60;;;;;;;;;;4992974;28;20040;-78
2023/04/25 07:59:21;;;;;;;1.17;0.65;;;;;;;;;;4989087;28;20019;-77
2023/04/25 08:01:46;;;;;;;2.33;0.60;;;;;;;;;;4987054;28;20030;-77
2023/04/25 08:04:12;;;;;;;1.15;0.50;;;;;;;;;;4989232;28;20081;-78
2023/04/25 08:06:37;;;;;;;1.05;0.50;;;;;;;;;;4987729;28;20069;-77
2023/04/25 08:09:03;;;;;;;2.28;0.63;;;;;;;;;;4987101;28;20023;-78
2023/04/25 08:11:29;;;;;;;1.42;0.60;;;;;;;;;;4987669;28;20018;-78
2023/04/25 08:13:55;;;;;;;1.50;0.80;;;;;;;;;;4987656;28;20034;-78
2023/04/25 08:16:20;;;;;;;1.00;0.50;;;;;;;;;;4987365;28;20030;-77
2023/04/25 08:18:46;;;;;;;3.17;0.82;;;;;;;;;;4987415;28;20451;-78
2023/04/25 08:21:12;;;;;;;2.15;0.45;;;;;;;;;;4987425;28;20054;-78
2023/04/25 08:23:38;;;;;;;1.02;0.60;;;;;;;;;;4989339;28;20030;-77
2023/04/25 08:26:04;;;;;;;1.10;0.50;;;;;;;;;;4989255;28;20045;-78
2023/04/25 08:28:30;;;;;;;2.35;0.50;;;;;;;;;;4989413;28;20489;-74
2023/04/25 08:30:55;;;;;;;3.47;0.57;;;;;;;;;;4989278;28;20113;-77
2023/04/25 08:33:20;;;;;;;0.98;0.52;;;;;;;;;;4989667;28;20029;-73
2023/04/25 08:35:46;;;;;;;0.82;0.40;;;;;;;;;;4989077;28;20117;-72
2023/04/25 08:38:11;;;;;;;1.58;0.80;;;;;;;;;;4989377;28;20026;-77
2023/04/25 08:40:38;;;;;;;1.17;0.70;;;;;;;;;;4989504;28;20401;-76
2023/04/25 08:43:05;;;;;;;1.98;0.55;;;;;;;;;;4989050;28;20026;-77
2023/04/25 08:45:32;;;;;;;0.60;0.50;;;;;;;;;;4990833;28;20081;-78
2023/04/25 08:47:58;;;;;;;1.40;0.80;;;;;;;;;;4992732;28;20497;-78
2023/04/25 08:50:26;;;;;;;1.38;0.80;;;;;;;;;;4993349;28;20026;-77
2023/04/25 08:52:53;;;;;;;0.88;0.52;;;;;;;;;;4992657;28;20028;-76
2023/04/25 08:55:21;;;;;;;1.15;0.50;;;;;;;;;;4992851;28;20053;-72
2023/04/25 08:57:47;;;;;;;0.88;0.55;;;;;;;;;;4992777;28;20076;-77
2023/04/25 09:00:12;;;;;;;0.93;0.50;;;;;;;;;;4992840;28;20069;-78
2023/04/25 09:02:42;;;;;;;1.48;0.50;;;;;;;;;;4992341;28;20026;-73
2023/04/25 09:05:12;;;;;;;1.00;0.40;;;;;;;;;;4992572;28;20410;-78
2023/04/25 09:07:37;;;;;;;1.58;0.60;;;;;;;;;;4992259;28;20038;-77
2023/04/25 09:10:03;;;;;;;2.33;0.65;;;;;;;;;;4992704;28;20037;-78
2023/04/25 09:12:29;;;;;;;0.98;0.60;;;;;;;;;;4992566;28;20528;-78
2023/04/25 09:15:04;;;;;;;1.20;0.60;;;;;;;;;;4992627;28;20049;-78
2023/04/25 09:17:29;;;;;;;0.88;0.40;;;;;;;;;;4992181;28;20031;-78
2023/04/25 09:19:55;;;;;;;0.57;0.30;;;;;;;;;;4992555;28;20474;-75
2023/04/25 09:22:22;;;;;;;0.80;0.40;;;;;;;;;;4992035;28;20406;-78
2023/04/25 09:24:49;;;;;;;1.20;0.50;;;;;;;;;;4992105;28;20037;-77
2023/04/25 09:27:19;;;;;;;0.75;0.40;;;;;;;;;;4991993;28;20085;-78
2023/04/25 09:29:46;;;;;;;1.23;0.50;;;;;;;;;;4992239;28;20022;-78
2023/04/25 09:32:15;;;;;;;1.08;0.35;;;;;;;;;;4992193;28;20394;-78
2023/04/25 09:34:42;;;;;;;0.88;0.35;;;;;;;;;;4992138;28;20431;-77
2023/04/25 09:37:10;;;;;;;1.60;0.50;;;;;;;;;;4991886;28;20552;-78
2023/04/25 09:39:37;;;;;;;0.40;0.30;;;;;;;;;;4992063;28;20471;-73
2023/04/25 09:42:04;;;;;;;0.57;0.35;;;;;;;;;;4991904;28;20106;-70
2023/04/25 09:44:29;;;;;;;1.27;0.60;;;;;;;;;;4991884;28;20069;-78
2023/04/25 09:46:54;;;;;;;0.68;0.50;;;;;;;;;;4991892;28;20053;-78
2023/04/25 09:49:21;;;;;;;1.15;0.57;;;;;;;;;;4991948;28;20089;-79
2023/04/25 09:51:57;;;;;;;1.00;0.50;;;;;;;;;;4991896;28;20065;-74
2023/04/25 09:54:23;;;;;;;0.73;0.40;;;;;;;;;;4991832;28;20105;-79
2023/04/25 09:56:51;;;;;;;0.70;0.50;;;;;;;;;;4990969;28;20026;-78
2023/04/25 09:59:22;;;;;;;2.58;0.70;;;;;;;;;;4991972;28;20466;-79
2023/04/25 10:01:50;;;;;;;1.00;0.50;;;;;;;;;;4991612;28;20041;-77
2023/04/25 10:04:25;;;;;;;3.60;0.68;;;;;;;;;;4991597;28;20026;-78
2023/04/25 10:06:53;;;;;;;1.42;0.63;;;;;;;;;;4991280;28;20065;-77
2023/04/25 10:09:26;;;;;;;2.08;0.70;;;;;;;;;;4991674;28;20113;-78
2023/04/25 10:11:52;;;;;;;0.98;0.60;;;;;;;;;;4991689;28;20049;-77
2023/04/25 10:14:19;;;;;;;0.77;0.60;;;;;;;;;;4991504;28;20093;-77
2023/04/25 10:16:45;;;;;;;3.10;0.70;;;;;;;;;;4991355;28;20035;-78
2023/04/25 10:19:11;;;;;;;1.20;0.70;;;;;;;;;;4990994;28;20629;-78
2023/04/25 10:21:48;;;;;;;0.95;0.68;;;;;;;;;;4991010;28;20054;-78
2023/04/25 10:24:14;;;;;;;1.10;0.70;;;;;;;;;;4991115;28;20042;-80
2023/04/25 10:26:40;;;;;;;2.83;0.80;;;;;;;;;;4990741;28;20033;-78
2023/04/25 10:29:05;;;;;;;0.73;0.70;;;;;;;;;;4990852;28;20050;-78
2023/04/25 10:31:31;;;;;;;0.73;0.70;;;;;;;;;;4991265;28;20109;-78
2023/04/25 10:33:57;;;;;;;3.13;0.63;;;;;;;;;;4989652;28;20036;-76
2023/04/25 10:36:24;;;;;;;1.52;0.70;;;;;;;;;;4990688;28;20478;-77
2023/04/25 10:38:51;;;;;;;0.52;0.50;;;;;;;;;;4990725;28;20034;-80
2023/04/25 10:41:18;;;;;;;0.80;0.60;;;;;;;;;;4990906;28;20034;-75
2023/04/25 10:43:45;;;;;;;1.63;0.88;;;;;;;;;;4990652;28;20504;-78
2023/04/25 10:46:22;;;;;;;1.10;0.70;;;;;;;;;;4990822;28;20065;-77
2023/04/25 10:48:56;;;;;;;0.77;0.60;;;;;;;;;;4990635;28;20474;-78
2023/04/25 10:51:24;;;;;;;1.58;0.90;;;;;;;;;;4990737;28;20022;-76
2023/04/25 10:53:55;;;;;;;1.40;0.90;;;;;;;;;;4990668;28;20114;-77
2023/04/25 10:56:22;;;;;;;1.35;0.80;;;;;;;;;;4990563;28;20057;-78
2023/04/25 10:58:48;;;;;;;0.57;0.57;;;;;;;;;;4990355;28;20691;-78
2023/04/25 11:01:25;;;;;;;2.00;0.90;;;;;;;;;;4990332;28;20106;-77
2023/04/25 11:03:57;;;;;;;1.33;0.93;;;;;;;;;;4990346;28;20026;-77
2023/04/25 11:06:37;;;;;;;0.90;0.70;;;;;;;;;;4990477;28;20369;-75
2023/04/25 11:09:09;;;;;;;1.20;0.80;;;;;;;;;;4990220;28;20113;-78
2023/04/25 11:11:36;;;;;;;1.45;0.90;;;;;;;;;;4990645;28;20030;-78
2023/04/25 11:14:02;;;;;;;1.05;0.70;;;;;;;;;;4990096;28;20080;-77
2023/04/25 11:16:27;;;;;;;2.42;1.00;;;;;;;;;;4990184;28;20439;-78
2023/04/25 11:18:53;;;;;;;2.35;0.70;;;;;;;;;;4989913;28;20129;-78
2023/04/25 11:21:18;;;;;;;3.60;0.80;;;;;;;;;;4990024;28;20046;-78
2023/04/25 11:23:46;;;;;;;0.73;0.52;;;;;;;;;;4990033;28;20018;-78
2023/04/25 11:26:14;;;;;;;1.13;0.70;;;;;;;;;;4989915;28;20026;-78
2023/04/25 11:28:39;;;;;;;0.68;0.55;;;;;;;;;;4989994;28;20038;-78
2023/04/25 11:31:04;;;;;;;1.13;0.70;;;;;;;;;;4990403;28;20026;-78
2023/04/25 11:33:30;;;;;;;1.15;0.70;;;;;;;;;;4990090;28;20390;-78
2023/04/25 11:35:56;;;;;;;1.35;0.80;;;;;;;;;;4989804;28;20494;-79
2023/04/25 11:38:23;;;;;;;1.75;0.80;;;;;;;;;;4989616;28;20065;-78
2023/04/25 11:40:52;;;;;;;2.53;1.00;;;;;;;;;;4989777;28;20544;-78
2023/04/25 11:43:20;;;;;;;0.93;0.75;;;;;;;;;;4988338;28;20074;-80
2023/04/25 11:45:47;;;;;;;2.25;0.80;;;;;;;;;;4988444;28;20540;-78
2023/04/25 11:48:13;;;;;;;1.38;0.70;;;;;;;;;;4989773;28;20043;-80
2023/04/25 11:50:41;;;;;;;1.00;0.60;;;;;;;;;;4988389;28;20030;-78
2023/04/25 11:53:08;;;;;;;1.17;0.73;;;;;;;;;;4989676;28;20026;-78
2023/04/25 11:55:34;;;;;;;0.82;0.70;;;;;;;;;;4989713;28;20081;-80
2023/04/25 11:58:00;;;;;;;1.88;0.95;;;;;;;;;;4988318;28;20030;-80
2023/04/25 12:00:26;;;;;;;1.40;0.70;;;;;;;;;;4989708;28;20085;-81
2023/04/25 12:02:57;;;;;;;1.00;0.63;;;;;;;;;;4989535;28;20030;-80
2023/04/25 12:05:33;;;;;;;1.40;0.80;;;;;;;;;;4988302;28;20030;-78
2023/04/25 12:08:08;;;;;;;1.30;0.57;;;;;;;;;;4989463;28;20525;-78
2023/04/25 12:10:40;;;;;;;0.75;0.50;;;;;;;;;;4989665;28;20084;-79
2023/04/25 12:13:20;;;;;;;0.98;0.50;;;;;;;;;;4989627;28;20406;-78
2023/04/25 12:15:45;;;;;;;2.17;0.70;;;;;;;;;;4989764;28;20533;-79
2023/04/25 12:18:11;;;;;;;2.47;0.70;;;;;;;;;;4989305;28;20137;-79
2023/04/25 12:20:36;;;;;;;0.95;0.60;;;;;;;;;;4990913;28;20087;-79
2023/04/25 12:23:07;;;;;;;1.10;0.73;;;;;;;;;;4993569;28;20029;-78
2023/04/25 12:25:36;;;;;;;;;;;;;;;;;;4993567;28;20035;-79
2023/04/25 12:28:23;;;;;;;1.30;0.80;;;;;;;;;;4993540;28;19957;-79
2023/04/25 12:31:04;;;;;;;1.20;0.77;;;;;;;;;;4993363;28;20029;-79
2023/04/25 12:33:31;;;;;;;1.10;0.80;;;;;;;;;;4993378;28;20560;-79
2023/04/25 12:35:58;;;;;;;1.88;1.00;;;;;;;;;;4993109;28;20022;-79
2023/04/25 12:38:31;;;;;;;1.17;0.85;;;;;;;;;;4992998;28;20031;-79
2023/04/25 12:40:57;;;;;;;1.65;1.17;;;;;;;;;;4993014;28;20485;-79
2023/04/25 12:43:23;;;;;;;1.67;1.00;;;;;;;;;;4993252;28;20022;-79
2023/04/25 12:45:53;;;;;;;1.65;1.08;;;;;;;;;;4993013;28;20122;-79
2023/04/25 12:48:22;;;;;;;1.55;1.00;;;;;;;;;;4993378;28;20062;-78
2023/04/25 12:50:49;;;;;;;1.85;0.95;;;;;;;;;;4992958;28;20034;-79
2023/04/25 12:53:16;;;;;;;2.17;1.05;;;;;;;;;;4991715;28;20085;-80
2023/04/25 12:55:41;;;;;;;1.75;1.08;;;;;;;;;;4992711;28;20029;-78
2023/04/25 12:58:07;;;;;;;1.33;1.00;;;;;;;;;;4993100;28;20091;-78
2023/04/25 13:00:32;;;;;;;2.47;1.20;;;;;;;;;;4992623;28;20023;-79
2023/04/25 13:02:58;;;;;;;3.75;1.00;;;;;;;;;;4991376;28;20035;-78
2023/04/25 13:05:23;;;;;;;1.38;1.02;;;;;;;;;;4992727;28;20454;-80
2023/04/25 13:07:49;;;;;;;2.53;1.40;;;;;;;;;;4992493;28;20033;-78
2023/04/25 13:10:14;;;;;;;2.35;1.20;;;;;;;;;;4992526;28;20113;-79
2023/04/25 13:12:40;;;;;;;2.88;1.30;;;;;;;;;;4993131;28;20022;-78
2023/04/25 13:15:06;;;;;;;3.92;1.45;;;;;;;;;;4992382;28;20030;-79
2023/04/25 13:17:32;;;;;;;4.28;1.40;;;;;;;;;;4992192;28;20034;-79
2023/04/25 13:19:57;;;;;;;1.98;1.23;;;;;;;;;;4992228;28;20455;-80
2023/04/25 13:22:22;;;;;;;3.53;1.45;;;;;;;;;;4992298;28;20030;-79
2023/04/25 13:24:48;;;;;;;3.50;1.40;;;;;;;;;;4992243;28;20034;-77
2023/04/25 13:27:13;;;;;;;2.08;1.08;;;;;;;;;;4990599;28;20484;-78
2023/04/25 13:29:40;;;;;;;1.65;1.10;;;;;;;;;;4992317;28;20052;-77
2023/04/25 13:32:06;;;;;;;1.95;1.00;;;;;;;;;;4992202;28;20018;-77
2023/04/25 13:34:32;;;;;;;3.30;0.90;;;;;;;;;;4992095;28;20441;-77
2023/04/25 13:36:57;;;;;;;1.63;0.90;;;;;;;;;;4991983;28;20046;-76
2023/04/25 13:39:22;;;;;;;2.17;1.00;;;;;;;;;;4991795;28;20041;-76
2023/04/25 13:41:48;;;;;;;1.58;1.13;;;;;;;;;;4992000;28;20058;-77
2023/04/25 13:44:13;;;;;;;1.80;1.20;;;;;;;;;;4991964;28;20398;-80
2023/04/25 13:46:39;;;;;;;2.13;1.10;;;;;;;;;;4991873;28;20026;-80
2023/04/25 13:49:04;;;;;;;2.78;1.42;;;;;;;;;;4991962;28;20450;-79
2023/04/25 13:51:30;;;;;;;3.08;1.20;;;;;;;;;;4991764;28;20022;-78
2023/04/25 13:53:56;;;;;;;2.83;1.10;;;;;;;;;;4992046;28;20042;-79
2023/04/25 13:56:22;;;;;;;0.90;0.80;;;;;;;;;;4991424;28;20340;-79
2023/04/25 13:58:48;;;;;;;1.13;0.85;;;;;;;;;;5006272;23;20124;-84
2023/04/25 14:01:14;;;;;;;1.20;0.82;;;;;;;;;;4991551;28;20565;-83
2023/04/25 14:03:41;;;;;;;1.60;0.90;;;;;;;;;;4990280;28;20026;-83
2023/04/25 14:06:06;;;;;;;1.48;1.00;;;;;;;;;;4991682;28;20157;-83
2023/04/25 14:08:32;;;;;;;2.05;0.90;;;;;;;;;;4991500;28;20116;-83
2023/04/25 14:10:57;;;;;;;0.70;0.70;;;;;;;;;;4990135;28;20121;-83
2023/04/25 14:13:23;;;;;;;1.42;0.80;;;;;;;;;;4991674;28;20478;-83
2023/04/25 14:15:50;;;;;;;1.65;1.08;;;;;;;;;;4989904;28;20026;-84
2023/04/25 14:18:15;;;;;;;1.00;0.80;;;;;;;;;;4991182;28;20041;-84
2023/04/25 14:20:41;;;;;;;1.30;0.70;;;;;;;;;;4990849;28;20023;-83
2023/04/25 14:23:06;;;;;;;1.38;0.80;;;;;;;;;;4991365;28;20031;-83
2023/04/25 14:25:32;;;;;;;1.98;0.70;;;;;;;;;;4991206;28;20023;-84
2023/04/25 14:27:57;;;;;;;1.23;0.90;;;;;;;;;;4989564;28;20041;-80
2023/04/25 14:30:23;;;;;;;1.02;0.70;;;;;;;;;;4991023;28;20069;-84
2023/04/25 14:32:49;;;;;;;1.67;0.73;;;;;;;;;;4991228;28;20057;-84
2023/04/25 14:35:14;;;;;;;1.95;0.90;;;;;;;;;;4991000;28;20117;-83
2023/04/25 14:37:40;;;;;;;0.93;0.70;;;;;;;;;;4990741;28;20141;-84